»·PEaware :: ACA314 KDEN-KASE

ACA314 :: KDEN-KASE

FLIGHT INFORMATION

Flight Status: Arrived
Operator:
Air Canada
More flights by this operator :: More flights under this callsign
Pilot: Tim B. (15084)
Aircraft: AIRBUS A320
(A320)
More flights by this aircraft type
Origin: KDEN Denver Intl
United States
Destination: KASE Aspen-Pitkin Co/Sardy
United States
More flights between these airports :: More routes between these airports
Route: +CONNR5 DBL
File this flight plan on PilotEdge
Remarks:
Altitude:
(Current/Filed)
22,000ft
Speed:
(Current/Filed)
500kts
Departed: 03-May-19 12:47 PM
Arrived: 03-May-19 01:27 PM
Distance/Time
Traveled:
109nm/0:40
Distance/Time
To Go:
Arrived

Flight Plot

Page will automatically refresh every two minutes.

Flight plan parsing failed; only flown route is shown


Map Options




Map Legend


Flown Route
Filed Route
Departure Airport
Arrival Airport
Navaid (VOR, NDB)
Fix

Horizontal Profiles

Position Reports

Time Latitude Longitude Heading Altitude Ground
Speed
03-May-19 12:13 39.858154 -104.672806 0 5408ft 0kts
03-May-19 12:14 39.858154 -104.672806 0 5408ft 0kts
03-May-19 12:15 39.858154 -104.672806 0 5408ft 0kts
03-May-19 12:16 39.858154 -104.672806 0 5408ft 0kts
03-May-19 12:17 39.858154 -104.672806 0 5408ft 0kts
03-May-19 12:18 39.858154 -104.672806 0 5408ft 0kts
03-May-19 12:19 39.858154 -104.672806 0 5408ft 0kts
03-May-19 12:20 39.858154 -104.672806 0 5408ft 0kts
03-May-19 12:21 39.858154 -104.672806 0 5408ft 0kts
03-May-19 12:22 39.858154 -104.672806 0 5408ft 0kts
03-May-19 12:23 39.858154 -104.672806 0 5408ft 0kts
03-May-19 12:24 39.858154 -104.672806 0 5408ft 0kts
03-May-19 12:25 39.858154 -104.672806 0 5408ft 0kts
03-May-19 12:26 39.858154 -104.672806 0 5408ft 0kts
03-May-19 12:27 39.858154 -104.672806 0 5408ft 0kts
03-May-19 12:28 39.858154 -104.672806 0 5408ft 0kts
03-May-19 12:29 39.858154 -104.672806 0 5408ft 0kts
03-May-19 12:30 39.858154 -104.672806 0 5408ft 0kts
03-May-19 12:31 39.858154 -104.672806 0 5408ft 0kts
03-May-19 12:32 39.858154 -104.672806 0 5408ft 0kts
03-May-19 12:33 39.858154 -104.672806 0 5408ft 0kts
03-May-19 12:34 39.858154 -104.672806 0 5408ft 0kts
03-May-19 12:35 39.858149 -104.672806 0 5408ft 0kts
03-May-19 12:36 39.857565 -104.672815 0 5408ft 2kts
03-May-19 12:37 39.857296 -104.672709 265 5409ft 0kts
03-May-19 12:38 39.857297 -104.672666 269 5409ft 0kts
03-May-19 12:39 39.857324 -104.673584 270 5405ft 11kts
03-May-19 12:40 39.857235 -104.679294 228 5364ft 2kts
03-May-19 12:41 39.856761 -104.681671 289 5347ft 19kts
03-May-19 12:42 39.853605 -104.684045 181 5324ft 21kts
03-May-19 12:43 39.847547 -104.684093 179 5312ft 21kts
03-May-19 12:44 39.841937 -104.684152 178 5316ft 14kts
03-May-19 12:45 39.841065 -104.684151 180 5320ft 12kts
03-May-19 12:46 39.840874 -104.706507 270 5546ft 154kts
03-May-19 12:47 39.841046 -104.771079 267 7751ft 218kts
03-May-19 12:48 39.839020 -104.861947 269 9845ft 273kts
03-May-19 12:49 39.837985 -104.961140 270 11232ft 281kts
03-May-19 12:50 39.825607 -105.069414 254 12925ft 328kts
03-May-19 12:51 39.800466 -105.185144 255 15313ft 340kts
03-May-19 12:52 39.774730 -105.305324 255 17489ft 351kts
03-May-19 12:53 39.748539 -105.429484 256 19413ft 363kts
03-May-19 12:54 39.721070 -105.556852 256 21092ft 376kts
03-May-19 12:55 39.696372 -105.689562 263 22014ft 397kts
03-May-19 12:56 39.680604 -105.833711 263 22015ft 406kts
03-May-19 12:57 39.664424 -105.978566 263 22062ft 406kts
03-May-19 12:58 39.648163 -106.122643 263 22166ft 404kts
03-May-19 12:59 39.632294 -106.261715 263 22414ft 403kts
03-May-19 13:00 39.598802 -106.399895 249 22509ft 405kts
03-May-19 13:01 39.557090 -106.530108 249 21522ft 375kts
03-May-19 13:02 39.519628 -106.646482 249 20724ft 326kts
03-May-19 13:03 39.488074 -106.744178 250 19815ft 276kts
03-May-19 13:04 39.492136 -106.836261 280 18957ft 252kts
03-May-19 13:05 39.503516 -106.924025 280 17442ft 244kts
03-May-19 13:06 39.480210 -106.993671 194 15714ft 246kts
03-May-19 13:07 39.415412 -106.978938 150 14387ft 248kts
03-May-19 13:08 39.354890 -106.932544 159 13011ft 256kts
03-May-19 13:09 39.289666 -106.898629 159 11406ft 230kts
03-May-19 13:10 39.231931 -106.868832 159 12375ft 227kts
03-May-19 13:11 39.172100 -106.837790 159 14035ft 247kts
03-May-19 13:12 39.101656 -106.811219 185 14336ft 269kts
03-May-19 13:13 39.028081 -106.824569 191 14337ft 267kts
03-May-19 13:14 38.977610 -106.882753 266 14353ft 262kts
03-May-19 13:15 38.998549 -106.969444 306 14653ft 262kts
03-May-19 13:16 39.057706 -107.023041 340 15598ft 272kts
03-May-19 13:17 39.131522 -107.044374 345 15160ft 267kts
03-May-19 13:18 39.201999 -107.064431 345 13963ft 255kts
03-May-19 13:19 39.268993 -107.083597 348 12475ft 243kts
03-May-19 13:20 39.327998 -107.072187 54 11166ft 214kts
03-May-19 13:21 39.356485 -107.008546 61 10413ft 215kts
03-May-19 13:22 39.372155 -106.936022 107 10447ft 211kts
03-May-19 13:23 39.322646 -106.905887 171 9657ft 206kts
03-May-19 13:24 39.272130 -106.892289 160 8592ft 177kts
03-May-19 13:25 39.228348 -106.871350 160 7703ft 139kts
03-May-19 13:26 39.220301 -106.865823 121 7771ft 6kts

Navigation Log

Ident Type
Flight plan parsing failed, navigation log unavailable